sensor_id;sensor_type;location;lat;lon;timestamp;temperature;humidity
44843;DHT22;31884;52.538;13.820;2024-02-23T00:01:31;10.00;99.90
44843;DHT22;31884;52.538;13.820;2024-02-23T00:03:57;9.90;99.90
44843;DHT22;31884;52.538;13.820;2024-02-23T00:06:22;9.90;99.90
44843;DHT22;31884;52.538;13.820;2024-02-23T00:08:53;9.90;99.90
44843;DHT22;31884;52.538;13.820;2024-02-23T00:11:20;9.80;99.90
44843;DHT22;31884;52.538;13.820;2024-02-23T00:13:46;9.90;99.90
44843;DHT22;31884;52.538;13.820;2024-02-23T00:16:11;9.80;99.90
44843;DHT22;31884;52.538;13.820;2024-02-23T00:18:37;9.80;99.90
44843;DHT22;31884;52.538;13.820;2024-02-23T00:21:03;9.70;99.90
44843;DHT22;31884;52.538;13.820;2024-02-23T00:23:29;9.80;99.90
44843;DHT22;31884;52.538;13.820;2024-02-23T00:25:54;9.80;99.90
44843;DHT22;31884;52.538;13.820;2024-02-23T00:28:20;9.80;99.90
44843;DHT22;31884;52.538;13.820;2024-02-23T00:30:45;9.80;99.90
44843;DHT22;31884;52.538;13.820;2024-02-23T00:33:11;9.80;99.90
44843;DHT22;31884;52.538;13.820;2024-02-23T00:35:36;9.80;99.90
44843;DHT22;31884;52.538;13.820;2024-02-23T00:38:02;9.80;99.90
44843;DHT22;31884;52.538;13.820;2024-02-23T00:40:27;9.80;99.90
44843;DHT22;31884;52.538;13.820;2024-02-23T00:42:53;9.90;99.90
44843;DHT22;31884;52.538;13.820;2024-02-23T00:45:19;9.80;99.90
44843;DHT22;31884;52.538;13.820;2024-02-23T00:47:44;9.90;99.90
44843;DHT22;31884;52.538;13.820;2024-02-23T00:50:12;10.00;99.90
44843;DHT22;31884;52.538;13.820;2024-02-23T00:52:38;10.00;99.90
44843;DHT22;31884;52.538;13.820;2024-02-23T00:55:03;10.10;99.90
44843;DHT22;31884;52.538;13.820;2024-02-23T00:57:29;10.20;99.90
44843;DHT22;31884;52.538;13.820;2024-02-23T00:59:58;10.10;99.90
44843;DHT22;31884;52.538;13.820;2024-02-23T01:02:24;10.10;99.90
44843;DHT22;31884;52.538;13.820;2024-02-23T01:04:49;10.10;99.90
44843;DHT22;31884;52.538;13.820;2024-02-23T01:07:15;10.10;99.90
44843;DHT22;31884;52.538;13.820;2024-02-23T01:09:40;10.00;99.90
44843;DHT22;31884;52.538;13.820;2024-02-23T01:12:06;10.00;99.90
44843;DHT22;31884;52.538;13.820;2024-02-23T01:14:32;10.00;99.90
44843;DHT22;31884;52.538;13.820;2024-02-23T01:16:57;9.90;99.90
44843;DHT22;31884;52.538;13.820;2024-02-23T01:19:23;9.90;99.90
44843;DHT22;31884;52.538;13.820;2024-02-23T01:21:49;10.00;99.90
44843;DHT22;31884;52.538;13.820;2024-02-23T01:24:21;10.00;99.90
44843;DHT22;31884;52.538;13.820;2024-02-23T01:26:46;10.00;99.90
44843;DHT22;31884;52.538;13.820;2024-02-23T01:29:11;10.10;99.90
44843;DHT22;31884;52.538;13.820;2024-02-23T01:31:37;10.10;99.90
44843;DHT22;31884;52.538;13.820;2024-02-23T01:34:03;10.20;99.90
44843;DHT22;31884;52.538;13.820;2024-02-23T01:36:28;10.20;99.90
44843;DHT22;31884;52.538;13.820;2024-02-23T01:38:54;10.20;99.90
44843;DHT22;31884;52.538;13.820;2024-02-23T01:41:20;10.20;99.90
44843;DHT22;31884;52.538;13.820;2024-02-23T01:43:45;10.20;99.90
44843;DHT22;31884;52.538;13.820;2024-02-23T01:46:11;10.10;99.90
44843;DHT22;31884;52.538;13.820;2024-02-23T01:48:36;10.10;99.90
44843;DHT22;31884;52.538;13.820;2024-02-23T01:51:02;10.00;99.90
44843;DHT22;31884;52.538;13.820;2024-02-23T01:53:28;10.00;99.90
44843;DHT22;31884;52.538;13.820;2024-02-23T01:55:54;10.00;99.90
44843;DHT22;31884;52.538;13.820;2024-02-23T01:58:20;10.00;99.90
44843;DHT22;31884;52.538;13.820;2024-02-23T02:00:46;10.00;99.90
44843;DHT22;31884;52.538;13.820;2024-02-23T02:03:12;10.00;99.90
44843;DHT22;31884;52.538;13.820;2024-02-23T02:05:37;10.00;99.90
44843;DHT22;31884;52.538;13.820;2024-02-23T02:08:03;10.00;99.90
44843;DHT22;31884;52.538;13.820;2024-02-23T02:10:29;10.00;99.90
44843;DHT22;31884;52.538;13.820;2024-02-23T02:12:54;10.00;99.90
44843;DHT22;31884;52.538;13.820;2024-02-23T02:15:20;10.10;99.90
44843;DHT22;31884;52.538;13.820;2024-02-23T02:17:47;10.10;99.90
44843;DHT22;31884;52.538;13.820;2024-02-23T02:20:13;10.10;99.90
44843;DHT22;31884;52.538;13.820;2024-02-23T02:22:39;10.10;99.90
44843;DHT22;31884;52.538;13.820;2024-02-23T02:25:06;10.10;99.90
44843;DHT22;31884;52.538;13.820;2024-02-23T02:27:32;10.20;99.90
44843;DHT22;31884;52.538;13.820;2024-02-23T02:29:57;10.20;99.90
44843;DHT22;31884;52.538;13.820;2024-02-23T02:32:23;10.30;99.90
44843;DHT22;31884;52.538;13.820;2024-02-23T02:34:49;10.30;99.90
44843;DHT22;31884;52.538;13.820;2024-02-23T02:37:14;10.30;99.90
44843;DHT22;31884;52.538;13.820;2024-02-23T02:39:40;10.40;99.90
44843;DHT22;31884;52.538;13.820;2024-02-23T02:42:06;10.40;99.90
44843;DHT22;31884;52.538;13.820;2024-02-23T02:44:31;10.40;99.90
44843;DHT22;31884;52.538;13.820;2024-02-23T02:46:57;10.40;97.50
44843;DHT22;31884;52.538;13.820;2024-02-23T02:49:23;10.40;95.70
44843;DHT22;31884;52.538;13.820;2024-02-23T02:51:48;10.40;94.40
44843;DHT22;31884;52.538;13.820;2024-02-23T02:54:14;10.30;92.60
44843;DHT22;31884;52.538;13.820;2024-02-23T02:56:43;10.30;92.30
44843;DHT22;31884;52.538;13.820;2024-02-23T02:59:09;10.20;88.70
44843;DHT22;31884;52.538;13.820;2024-02-23T03:01:35;10.20;88.30
44843;DHT22;31884;52.538;13.820;2024-02-23T03:04:01;10.10;87.90
44843;DHT22;31884;52.538;13.820;2024-02-23T03:06:26;10.10;86.00
44843;DHT22;31884;52.538;13.820;2024-02-23T03:08:52;10.00;85.50
44843;DHT22;31884;52.538;13.820;2024-02-23T03:11:17;10.00;85.40
44843;DHT22;31884;52.538;13.820;2024-02-23T03:13:43;9.90;86.30
44843;DHT22;31884;52.538;13.820;2024-02-23T03:16:15;9.80;87.00
44843;DHT22;31884;52.538;13.820;2024-02-23T03:18:41;9.80;86.10
44843;DHT22;31884;52.538;13.820;2024-02-23T03:21:06;9.80;84.10
44843;DHT22;31884;52.538;13.820;2024-02-23T03:23:32;9.70;83.10
44843;DHT22;31884;52.538;13.820;2024-02-23T03:25:57;9.70;83.10
44843;DHT22;31884;52.538;13.820;2024-02-23T03:28:23;9.70;83.20
44843;DHT22;31884;52.538;13.820;2024-02-23T03:30:48;9.60;81.60
44843;DHT22;31884;52.538;13.820;2024-02-23T03:33:13;9.60;81.90
44843;DHT22;31884;52.538;13.820;2024-02-23T03:35:39;9.60;81.60
44843;DHT22;31884;52.538;13.820;2024-02-23T03:38:04;9.60;81.60
44843;DHT22;31884;52.538;13.820;2024-02-23T03:40:30;9.50;81.70
44843;DHT22;31884;52.538;13.820;2024-02-23T03:42:55;9.40;81.70
44843;DHT22;31884;52.538;13.820;2024-02-23T03:45:21;9.50;81.20
44843;DHT22;31884;52.538;13.820;2024-02-23T03:47:46;9.40;81.00
44843;DHT22;31884;52.538;13.820;2024-02-23T03:50:12;9.40;81.30
44843;DHT22;31884;52.538;13.820;2024-02-23T03:52:37;9.40;81.00
44843;DHT22;31884;52.538;13.820;2024-02-23T03:55:03;9.30;81.20
44843;DHT22;31884;52.538;13.820;2024-02-23T03:57:29;9.30;80.20
44843;DHT22;31884;52.538;13.820;2024-02-23T03:59:55;9.30;80.40
44843;DHT22;31884;52.538;13.820;2024-02-23T04:02:21;9.30;80.20
44843;DHT22;31884;52.538;13.820;2024-02-23T04:04:47;9.20;79.90
44843;DHT22;31884;52.538;13.820;2024-02-23T04:07:13;9.10;80.10
44843;DHT22;31884;52.538;13.820;2024-02-23T04:09:38;9.10;80.30
44843;DHT22;31884;52.538;13.820;2024-02-23T04:12:04;9.00;80.40
44843;DHT22;31884;52.538;13.820;2024-02-23T04:14:29;8.90;80.40
44843;DHT22;31884;52.538;13.820;2024-02-23T04:16:55;8.80;80.70
44843;DHT22;31884;52.538;13.820;2024-02-23T04:19:20;8.80;81.20
44843;DHT22;31884;52.538;13.820;2024-02-23T04:21:46;8.70;81.40
44843;DHT22;31884;52.538;13.820;2024-02-23T04:24:11;8.70;81.40
44843;DHT22;31884;52.538;13.820;2024-02-23T04:26:37;8.70;80.60
44843;DHT22;31884;52.538;13.820;2024-02-23T04:29:02;8.60;81.70
44843;DHT22;31884;52.538;13.820;2024-02-23T04:31:28;8.50;81.90
44843;DHT22;31884;52.538;13.820;2024-02-23T04:33:53;8.50;82.00
44843;DHT22;31884;52.538;13.820;2024-02-23T04:36:19;8.40;81.80
44843;DHT22;31884;52.538;13.820;2024-02-23T04:38:46;8.40;81.80
44843;DHT22;31884;52.538;13.820;2024-02-23T04:41:12;8.40;81.50
44843;DHT22;31884;52.538;13.820;2024-02-23T04:43:37;8.40;81.10
44843;DHT22;31884;52.538;13.820;2024-02-23T04:46:03;8.40;81.60
44843;DHT22;31884;52.538;13.820;2024-02-23T04:48:28;8.30;81.60
44843;DHT22;31884;52.538;13.820;2024-02-23T04:50:56;8.30;81.20
44843;DHT22;31884;52.538;13.820;2024-02-23T04:53:22;8.30;81.10
44843;DHT22;31884;52.538;13.820;2024-02-23T04:55:47;8.30;81.00
44843;DHT22;31884;52.538;13.820;2024-02-23T04:58:13;8.30;79.20
44843;DHT22;31884;52.538;13.820;2024-02-23T05:00:39;8.40;79.10
44843;DHT22;31884;52.538;13.820;2024-02-23T05:03:05;8.40;79.10
44843;DHT22;31884;52.538;13.820;2024-02-23T05:05:31;8.30;78.90
44843;DHT22;31884;52.538;13.820;2024-02-23T05:07:57;8.30;79.00
44843;DHT22;31884;52.538;13.820;2024-02-23T05:10:23;8.30;79.10
44843;DHT22;31884;52.538;13.820;2024-02-23T05:12:49;8.20;78.80
44843;DHT22;31884;52.538;13.820;2024-02-23T05:15:15;8.30;79.60
44843;DHT22;31884;52.538;13.820;2024-02-23T05:17:40;8.20;79.30
44843;DHT22;31884;52.538;13.820;2024-02-23T05:20:07;8.20;79.30
44843;DHT22;31884;52.538;13.820;2024-02-23T05:22:33;8.20;78.80
44843;DHT22;31884;52.538;13.820;2024-02-23T05:24:59;8.20;78.50
44843;DHT22;31884;52.538;13.820;2024-02-23T05:27:24;8.20;77.90
44843;DHT22;31884;52.538;13.820;2024-02-23T05:29:50;8.20;78.40
44843;DHT22;31884;52.538;13.820;2024-02-23T05:32:16;8.10;78.70
44843;DHT22;31884;52.538;13.820;2024-02-23T05:34:42;8.10;78.50
44843;DHT22;31884;52.538;13.820;2024-02-23T05:37:08;8.10;78.10
44843;DHT22;31884;52.538;13.820;2024-02-23T05:39:33;8.10;77.90
44843;DHT22;31884;52.538;13.820;2024-02-23T05:41:59;8.10;79.00
44843;DHT22;31884;52.538;13.820;2024-02-23T05:44:25;8.00;79.30
44843;DHT22;31884;52.538;13.820;2024-02-23T05:46:50;8.00;79.30
44843;DHT22;31884;52.538;13.820;2024-02-23T05:49:16;7.90;79.50
44843;DHT22;31884;52.538;13.820;2024-02-23T05:51:41;7.90;79.20
44843;DHT22;31884;52.538;13.820;2024-02-23T05:54:08;8.00;78.90
44843;DHT22;31884;52.538;13.820;2024-02-23T05:56:33;8.00;79.10
44843;DHT22;31884;52.538;13.820;2024-02-23T05:58:59;8.10;78.80
44843;DHT22;31884;52.538;13.820;2024-02-23T06:01:24;8.10;78.40
44843;DHT22;31884;52.538;13.820;2024-02-23T06:03:50;8.10;78.00
44843;DHT22;31884;52.538;13.820;2024-02-23T06:06:15;8.00;77.60
44843;DHT22;31884;52.538;13.820;2024-02-23T06:08:41;7.90;77.30
44843;DHT22;31884;52.538;13.820;2024-02-23T06:11:09;7.90;77.10
44843;DHT22;31884;52.538;13.820;2024-02-23T06:13:34;7.70;76.60
44843;DHT22;31884;52.538;13.820;2024-02-23T06:16:00;7.70;75.80
44843;DHT22;31884;52.538;13.820;2024-02-23T06:18:25;7.70;75.20
44843;DHT22;31884;52.538;13.820;2024-02-23T06:20:51;7.60;75.00
44843;DHT22;31884;52.538;13.820;2024-02-23T06:23:17;7.50;75.00
44843;DHT22;31884;52.538;13.820;2024-02-23T06:25:43;7.50;75.60
44843;DHT22;31884;52.538;13.820;2024-02-23T06:28:11;7.40;76.00
44843;DHT22;31884;52.538;13.820;2024-02-23T06:30:37;7.30;75.80
44843;DHT22;31884;52.538;13.820;2024-02-23T06:33:02;7.30;75.80
44843;DHT22;31884;52.538;13.820;2024-02-23T06:35:29;7.30;74.90
44843;DHT22;31884;52.538;13.820;2024-02-23T06:37:55;7.30;74.60
44843;DHT22;31884;52.538;13.820;2024-02-23T06:40:20;7.30;74.90
44843;DHT22;31884;52.538;13.820;2024-02-23T06:42:46;7.30;74.50
44843;DHT22;31884;52.538;13.820;2024-02-23T06:45:11;7.20;74.50
44843;DHT22;31884;52.538;13.820;2024-02-23T06:47:37;7.20;75.00
44843;DHT22;31884;52.538;13.820;2024-02-23T06:50:05;7.20;75.60
44843;DHT22;31884;52.538;13.820;2024-02-23T06:52:31;7.20;75.50
44843;DHT22;31884;52.538;13.820;2024-02-23T06:54:58;7.10;75.40
44843;DHT22;31884;52.538;13.820;2024-02-23T06:57:23;7.20;76.20
44843;DHT22;31884;52.538;13.820;2024-02-23T06:59:51;7.20;76.10
44843;DHT22;31884;52.538;13.820;2024-02-23T07:02:16;7.40;75.90
44843;DHT22;31884;52.538;13.820;2024-02-23T07:04:42;7.50;75.60
44843;DHT22;31884;52.538;13.820;2024-02-23T07:07:08;7.50;75.20
44843;DHT22;31884;52.538;13.820;2024-02-23T07:09:34;7.60;76.40
44843;DHT22;31884;52.538;13.820;2024-02-23T07:12:00;7.50;75.80
44843;DHT22;31884;52.538;13.820;2024-02-23T07:14:26;7.50;75.90
44843;DHT22;31884;52.538;13.820;2024-02-23T07:16:51;7.60;76.20
44843;DHT22;31884;52.538;13.820;2024-02-23T07:19:18;7.60;76.10
44843;DHT22;31884;52.538;13.820;2024-02-23T07:21:45;7.60;76.70
44843;DHT22;31884;52.538;13.820;2024-02-23T07:24:10;7.70;76.50
44843;DHT22;31884;52.538;13.820;2024-02-23T07:26:36;7.70;76.30
44843;DHT22;31884;52.538;13.820;2024-02-23T07:29:02;7.70;76.40
44843;DHT22;31884;52.538;13.820;2024-02-23T07:31:27;7.80;77.40
44843;DHT22;31884;52.538;13.820;2024-02-23T07:33:53;7.90;77.30
44843;DHT22;31884;52.538;13.820;2024-02-23T07:36:18;8.00;77.00
44843;DHT22;31884;52.538;13.820;2024-02-23T07:38:44;8.20;76.60
44843;DHT22;31884;52.538;13.820;2024-02-23T07:41:10;8.40;77.50
44843;DHT22;31884;52.538;13.820;2024-02-23T07:43:36;8.50;76.70
44843;DHT22;31884;52.538;13.820;2024-02-23T07:46:02;8.70;76.60
44843;DHT22;31884;52.538;13.820;2024-02-23T07:48:27;8.80;76.80
44843;DHT22;31884;52.538;13.820;2024-02-23T07:50:53;9.10;76.30
44843;DHT22;31884;52.538;13.820;2024-02-23T07:53:18;9.20;76.70
44843;DHT22;31884;52.538;13.820;2024-02-23T07:55:44;9.30;76.60
44843;DHT22;31884;52.538;13.820;2024-02-23T07:58:09;9.40;76.60
44843;DHT22;31884;52.538;13.820;2024-02-23T08:00:35;9.40;77.20
44843;DHT22;31884;52.538;13.820;2024-02-23T08:03:03;9.30;74.50
44843;DHT22;31884;52.538;13.820;2024-02-23T08:05:29;9.40;76.30
44843;DHT22;31884;52.538;13.820;2024-02-23T08:07:54;9.60;76.80
44843;DHT22;31884;52.538;13.820;2024-02-23T08:10:20;9.70;76.40
44843;DHT22;31884;52.538;13.820;2024-02-23T08:12:46;9.90;76.60
44843;DHT22;31884;52.538;13.820;2024-02-23T08:15:12;10.10;76.20
44843;DHT22;31884;52.538;13.820;2024-02-23T08:17:37;10.30;76.70
44843;DHT22;31884;52.538;13.820;2024-02-23T08:20:03;10.40;76.40
44843;DHT22;31884;52.538;13.820;2024-02-23T08:22:29;10.60;77.10
44843;DHT22;31884;52.538;13.820;2024-02-23T08:24:55;10.70;77.40
44843;DHT22;31884;52.538;13.820;2024-02-23T08:27:20;10.90;76.70
44843;DHT22;31884;52.538;13.820;2024-02-23T08:29:46;10.90;78.40
44843;DHT22;31884;52.538;13.820;2024-02-23T08:32:11;10.70;77.20
44843;DHT22;31884;52.538;13.820;2024-02-23T08:34:38;10.50;74.70
44843;DHT22;31884;52.538;13.820;2024-02-23T08:37:03;10.30;76.20
44843;DHT22;31884;52.538;13.820;2024-02-23T08:39:29;10.20;76.70
44843;DHT22;31884;52.538;13.820;2024-02-23T08:41:54;10.10;73.80
44843;DHT22;31884;52.538;13.820;2024-02-23T08:44:20;10.00;74.40
44843;DHT22;31884;52.538;13.820;2024-02-23T08:46:45;10.00;74.80
44843;DHT22;31884;52.538;13.820;2024-02-23T08:49:11;10.00;74.40
44843;DHT22;31884;52.538;13.820;2024-02-23T08:51:36;10.00;74.50
44843;DHT22;31884;52.538;13.820;2024-02-23T08:54:03;10.10;73.70
44843;DHT22;31884;52.538;13.820;2024-02-23T08:56:30;10.10;73.10
44843;DHT22;31884;52.538;13.820;2024-02-23T08:58:57;10.10;72.20
44843;DHT22;31884;52.538;13.820;2024-02-23T09:01:23;10.10;72.30
44843;DHT22;31884;52.538;13.820;2024-02-23T09:03:48;10.10;72.00
44843;DHT22;31884;52.538;13.820;2024-02-23T09:06:14;10.00;70.60
44843;DHT22;31884;52.538;13.820;2024-02-23T09:08:39;10.00;70.90
44843;DHT22;31884;52.538;13.820;2024-02-23T09:11:06;9.90;70.80
44843;DHT22;31884;52.538;13.820;2024-02-23T09:13:31;9.90;70.60
44843;DHT22;31884;52.538;13.820;2024-02-23T09:15:57;9.90;70.60
44843;DHT22;31884;52.538;13.820;2024-02-23T09:18:22;9.80;70.90
44843;DHT22;31884;52.538;13.820;2024-02-23T09:20:48;9.80;71.20
44843;DHT22;31884;52.538;13.820;2024-02-23T09:23:14;9.80;69.80
44843;DHT22;31884;52.538;13.820;2024-02-23T09:25:39;9.90;70.30
44843;DHT22;31884;52.538;13.820;2024-02-23T09:28:05;10.00;69.90
44843;DHT22;31884;52.538;13.820;2024-02-23T09:30:30;10.10;69.00
44843;DHT22;31884;52.538;13.820;2024-02-23T09:32:56;10.30;70.40
44843;DHT22;31884;52.538;13.820;2024-02-23T09:35:21;10.50;70.10
44843;DHT22;31884;52.538;13.820;2024-02-23T09:37:47;10.60;69.10
44843;DHT22;31884;52.538;13.820;2024-02-23T09:40:14;10.80;68.60
44843;DHT22;31884;52.538;13.820;2024-02-23T09:42:40;10.90;68.50
44843;DHT22;31884;52.538;13.820;2024-02-23T09:45:07;11.20;70.00
44843;DHT22;31884;52.538;13.820;2024-02-23T09:47:34;11.30;69.60
44843;DHT22;31884;52.538;13.820;2024-02-23T09:50:00;11.60;70.60
44843;DHT22;31884;52.538;13.820;2024-02-23T09:52:29;11.70;70.00
44843;DHT22;31884;52.538;13.820;2024-02-23T09:54:54;11.70;69.50
44843;DHT22;31884;52.538;13.820;2024-02-23T09:57:20;11.80;68.80
44843;DHT22;31884;52.538;13.820;2024-02-23T09:59:48;11.70;66.30
44843;DHT22;31884;52.538;13.820;2024-02-23T10:02:15;11.60;63.90
44843;DHT22;31884;52.538;13.820;2024-02-23T10:04:42;11.70;64.70
44843;DHT22;31884;52.538;13.820;2024-02-23T10:07:14;11.70;63.60
44843;DHT22;31884;52.538;13.820;2024-02-23T10:09:40;11.60;63.20
44843;DHT22;31884;52.538;13.820;2024-02-23T10:12:06;11.70;63.40
44843;DHT22;31884;52.538;13.820;2024-02-23T10:14:32;11.80;62.60
44843;DHT22;31884;52.538;13.820;2024-02-23T10:16:57;11.80;60.20
44843;DHT22;31884;52.538;13.820;2024-02-23T10:19:24;11.90;59.90
44843;DHT22;31884;52.538;13.820;2024-02-23T10:21:54;11.90;60.00
44843;DHT22;31884;52.538;13.820;2024-02-23T10:24:20;12.00;60.40
44843;DHT22;31884;52.538;13.820;2024-02-23T10:26:46;11.90;59.60
44843;DHT22;31884;52.538;13.820;2024-02-23T10:29:12;11.80;58.90
44843;DHT22;31884;52.538;13.820;2024-02-23T10:31:38;11.80;57.80
44843;DHT22;31884;52.538;13.820;2024-02-23T10:34:08;11.80;58.30
44843;DHT22;31884;52.538;13.820;2024-02-23T10:36:42;11.70;58.20
44843;DHT22;31884;52.538;13.820;2024-02-23T10:39:08;11.70;56.80
44843;DHT22;31884;52.538;13.820;2024-02-23T10:41:39;11.70;57.30
44843;DHT22;31884;52.538;13.820;2024-02-23T10:44:09;11.70;57.20
44843;DHT22;31884;52.538;13.820;2024-02-23T10:46:37;11.80;58.00
44843;DHT22;31884;52.538;13.820;2024-02-23T10:49:02;11.80;57.50
44843;DHT22;31884;52.538;13.820;2024-02-23T10:51:28;11.90;57.50
44843;DHT22;31884;52.538;13.820;2024-02-23T10:53:55;11.90;57.70
44843;DHT22;31884;52.538;13.820;2024-02-23T10:56:20;11.80;54.90
44843;DHT22;31884;52.538;13.820;2024-02-23T10:58:48;11.70;55.80
44843;DHT22;31884;52.538;13.820;2024-02-23T11:01:14;11.60;56.20
44843;DHT22;31884;52.538;13.820;2024-02-23T11:03:42;11.60;56.90
44843;DHT22;31884;52.538;13.820;2024-02-23T11:06:09;11.50;57.30
44843;DHT22;31884;52.538;13.820;2024-02-23T11:08:35;11.60;56.90
44843;DHT22;31884;52.538;13.820;2024-02-23T11:11:11;11.60;56.30
44843;DHT22;31884;52.538;13.820;2024-02-23T11:13:37;11.60;57.10
44843;DHT22;31884;52.538;13.820;2024-02-23T11:16:04;11.60;56.70
44843;DHT22;31884;52.538;13.820;2024-02-23T11:18:30;11.50;56.00
44843;DHT22;31884;52.538;13.820;2024-02-23T11:21:02;11.50;55.70
44843;DHT22;31884;52.538;13.820;2024-02-23T11:23:40;11.40;56.00
44843;DHT22;31884;52.538;13.820;2024-02-23T11:26:06;11.50;56.20
44843;DHT22;31884;52.538;13.820;2024-02-23T11:28:41;11.40;55.90
44843;DHT22;31884;52.538;13.820;2024-02-23T11:31:14;11.50;56.10
44843;DHT22;31884;52.538;13.820;2024-02-23T11:33:46;11.60;55.80
44843;DHT22;31884;52.538;13.820;2024-02-23T11:36:12;11.60;54.50
44843;DHT22;31884;52.538;13.820;2024-02-23T11:38:39;11.50;53.80
44843;DHT22;31884;52.538;13.820;2024-02-23T11:41:04;11.60;55.00
44843;DHT22;31884;52.538;13.820;2024-02-23T11:43:30;11.60;54.90
44843;DHT22;31884;52.538;13.820;2024-02-23T11:45:59;11.70;54.00
44843;DHT22;31884;52.538;13.820;2024-02-23T11:48:25;11.70;52.90
44843;DHT22;31884;52.538;13.820;2024-02-23T11:50:50;11.60;52.70
44843;DHT22;31884;52.538;13.820;2024-02-23T11:53:16;11.40;51.30
44843;DHT22;31884;52.538;13.820;2024-02-23T11:55:42;11.40;51.70
44843;DHT22;31884;52.538;13.820;2024-02-23T11:58:08;11.20;51.60
44843;DHT22;31884;52.538;13.820;2024-02-23T12:00:34;11.30;51.60
44843;DHT22;31884;52.538;13.820;2024-02-23T12:03:00;11.30;51.90
44843;DHT22;31884;52.538;13.820;2024-02-23T12:05:26;11.20;52.00
44843;DHT22;31884;52.538;13.820;2024-02-23T12:07:52;11.20;48.60
44843;DHT22;31884;52.538;13.820;2024-02-23T12:10:18;11.20;50.10
44843;DHT22;31884;52.538;13.820;2024-02-23T12:12:44;11.20;50.50
44843;DHT22;31884;52.538;13.820;2024-02-23T12:15:09;11.20;50.60
44843;DHT22;31884;52.538;13.820;2024-02-23T12:17:36;11.20;51.20
44843;DHT22;31884;52.538;13.820;2024-02-23T12:20:03;11.20;51.20
44843;DHT22;31884;52.538;13.820;2024-02-23T12:22:29;11.20;51.90
44843;DHT22;31884;52.538;13.820;2024-02-23T12:24:58;11.20;51.80
44843;DHT22;31884;52.538;13.820;2024-02-23T12:27:24;11.30;51.40
44843;DHT22;31884;52.538;13.820;2024-02-23T12:29:52;11.30;50.70
44843;DHT22;31884;52.538;13.820;2024-02-23T12:32:20;11.20;50.50
44843;DHT22;31884;52.538;13.820;2024-02-23T12:34:46;11.20;49.10
44843;DHT22;31884;52.538;13.820;2024-02-23T12:37:15;11.00;48.70
44843;DHT22;31884;52.538;13.820;2024-02-23T12:39:41;11.00;49.90
44843;DHT22;31884;52.538;13.820;2024-02-23T12:42:07;11.00;50.30
44843;DHT22;31884;52.538;13.820;2024-02-23T12:44:33;10.90;50.20
44843;DHT22;31884;52.538;13.820;2024-02-23T12:46:58;10.90;51.10
44843;DHT22;31884;52.538;13.820;2024-02-23T12:49:24;10.90;51.40
44843;DHT22;31884;52.538;13.820;2024-02-23T12:51:49;11.00;51.50
44843;DHT22;31884;52.538;13.820;2024-02-23T12:54:15;11.00;50.10
44843;DHT22;31884;52.538;13.820;2024-02-23T12:56:40;11.00;49.60
44843;DHT22;31884;52.538;13.820;2024-02-23T12:59:06;11.10;49.30
44843;DHT22;31884;52.538;13.820;2024-02-23T13:01:32;11.10;50.00
44843;DHT22;31884;52.538;13.820;2024-02-23T13:04:01;11.20;49.60
44843;DHT22;31884;52.538;13.820;2024-02-23T13:06:27;11.30;50.40
44843;DHT22;31884;52.538;13.820;2024-02-23T13:08:52;11.40;50.70
44843;DHT22;31884;52.538;13.820;2024-02-23T13:11:18;11.30;49.70
44843;DHT22;31884;52.538;13.820;2024-02-23T13:13:43;11.20;48.70
44843;DHT22;31884;52.538;13.820;2024-02-23T13:16:10;11.10;49.20
44843;DHT22;31884;52.538;13.820;2024-02-23T13:18:36;11.10;49.30
44843;DHT22;31884;52.538;13.820;2024-02-23T13:21:01;11.00;49.30
44843;DHT22;31884;52.538;13.820;2024-02-23T13:23:28;11.00;49.30
44843;DHT22;31884;52.538;13.820;2024-02-23T13:25:54;10.90;50.00
44843;DHT22;31884;52.538;13.820;2024-02-23T13:28:19;10.80;50.00
44843;DHT22;31884;52.538;13.820;2024-02-23T13:30:44;10.90;50.50
44843;DHT22;31884;52.538;13.820;2024-02-23T13:33:11;10.90;50.50
44843;DHT22;31884;52.538;13.820;2024-02-23T13:35:36;10.90;50.60
44843;DHT22;31884;52.538;13.820;2024-02-23T13:38:02;10.90;49.70
44843;DHT22;31884;52.538;13.820;2024-02-23T13:40:30;11.00;50.70
44843;DHT22;31884;52.538;13.820;2024-02-23T13:42:57;10.90;50.80
44843;DHT22;31884;52.538;13.820;2024-02-23T13:45:22;10.80;50.80
44843;DHT22;31884;52.538;13.820;2024-02-23T13:48:00;10.80;51.10
44843;DHT22;31884;52.538;13.820;2024-02-23T13:50:26;10.70;50.40
44843;DHT22;31884;52.538;13.820;2024-02-23T13:52:52;10.60;50.00
44843;DHT22;31884;52.538;13.820;2024-02-23T13:55:17;10.50;49.00
44843;DHT22;31884;52.538;13.820;2024-02-23T13:57:44;10.40;49.70
44843;DHT22;31884;52.538;13.820;2024-02-23T14:00:10;10.30;50.30
44843;DHT22;31884;52.538;13.820;2024-02-23T14:02:38;10.30;50.50
44843;DHT22;31884;52.538;13.820;2024-02-23T14:05:06;10.30;50.70
44843;DHT22;31884;52.538;13.820;2024-02-23T14:07:34;10.30;50.00
44843;DHT22;31884;52.538;13.820;2024-02-23T14:10:00;10.30;50.50
44843;DHT22;31884;52.538;13.820;2024-02-23T14:12:27;10.30;50.60
44843;DHT22;31884;52.538;13.820;2024-02-23T14:14:53;10.30;50.70
44843;DHT22;31884;52.538;13.820;2024-02-23T14:17:18;10.30;51.60
44843;DHT22;31884;52.538;13.820;2024-02-23T14:19:44;10.30;51.20
44843;DHT22;31884;52.538;13.820;2024-02-23T14:22:09;10.20;51.30
44843;DHT22;31884;52.538;13.820;2024-02-23T14:24:35;10.20;51.10
44843;DHT22;31884;52.538;13.820;2024-02-23T14:27:01;10.10;50.70
44843;DHT22;31884;52.538;13.820;2024-02-23T14:29:26;10.10;50.40
44843;DHT22;31884;52.538;13.820;2024-02-23T14:31:52;10.00;50.90
44843;DHT22;31884;52.538;13.820;2024-02-23T14:34:18;10.00;50.40
44843;DHT22;31884;52.538;13.820;2024-02-23T14:36:44;9.90;49.80
44843;DHT22;31884;52.538;13.820;2024-02-23T14:39:09;9.90;50.60
44843;DHT22;31884;52.538;13.820;2024-02-23T14:41:38;9.90;51.30
44843;DHT22;31884;52.538;13.820;2024-02-23T14:44:04;9.80;51.20
44843;DHT22;31884;52.538;13.820;2024-02-23T14:46:29;9.80;51.70
44843;DHT22;31884;52.538;13.820;2024-02-23T14:48:55;9.70;51.80
44843;DHT22;31884;52.538;13.820;2024-02-23T14:51:20;9.70;52.00
44843;DHT22;31884;52.538;13.820;2024-02-23T14:53:46;9.70;51.80
44843;DHT22;31884;52.538;13.820;2024-02-23T14:56:11;9.60;51.90
44843;DHT22;31884;52.538;13.820;2024-02-23T14:58:36;9.60;51.20
44843;DHT22;31884;52.538;13.820;2024-02-23T15:01:03;9.60;51.70
44843;DHT22;31884;52.538;13.820;2024-02-23T15:03:29;9.60;51.70
44843;DHT22;31884;52.538;13.820;2024-02-23T15:05:56;9.60;52.20
44843;DHT22;31884;52.538;13.820;2024-02-23T15:08:22;9.60;52.20
44843;DHT22;31884;52.538;13.820;2024-02-23T15:10:47;9.50;52.40
44843;DHT22;31884;52.538;13.820;2024-02-23T15:13:13;9.50;52.50
44843;DHT22;31884;52.538;13.820;2024-02-23T15:15:39;9.50;53.00